createdAt,value
2023-02-23T00:01:51.451Z,9.46
2023-02-23T00:04:20.929Z,9.55
2023-02-23T00:06:47.806Z,9.52
2023-02-23T00:09:23.162Z,9.48
2023-02-23T00:11:57.382Z,9.35
2023-02-23T00:14:28.924Z,9.35
2023-02-23T00:16:56.426Z,9.36
2023-02-23T00:19:24.712Z,9.33
2023-02-23T00:21:52.176Z,9.28
2023-02-23T00:24:19.807Z,9.22
2023-02-23T00:26:47.845Z,9.21
2023-02-23T00:29:17.280Z,9.05
2023-02-23T00:31:45.406Z,9.17
2023-02-23T00:34:14.500Z,9.03
2023-02-23T00:36:41.535Z,9.07
2023-02-23T00:39:26.723Z,9.07
2023-02-23T00:41:53.913Z,8.97
2023-02-23T00:44:21.756Z,9.04
2023-02-23T00:46:51.804Z,8.90
2023-02-23T00:49:19.777Z,9.09
2023-02-23T00:51:46.951Z,9.03
2023-02-23T00:54:14.774Z,8.89
2023-02-23T00:56:41.452Z,9.01
2023-02-23T00:59:08.170Z,8.74
2023-02-23T01:01:35.157Z,8.98
2023-02-23T01:04:02.197Z,9.00
2023-02-23T01:06:28.914Z,9.02
2023-02-23T01:08:57.640Z,9.02
2023-02-23T01:11:33.620Z,8.80
2023-02-23T01:14:01.132Z,8.93
2023-02-23T01:16:31.286Z,9.06
2023-02-23T01:19:00.673Z,9.03
2023-02-23T01:21:33.474Z,9.10
2023-02-23T01:24:00.875Z,9.09
2023-02-23T01:26:36.684Z,9.10
2023-02-23T01:29:10.569Z,9.10
2023-02-23T01:31:42.632Z,9.09
2023-02-23T01:34:11.920Z,8.85
2023-02-23T01:36:42.192Z,8.95
2023-02-23T01:39:12.041Z,9.18
2023-02-23T01:41:38.835Z,9.10
2023-02-23T01:44:08.767Z,9.07
2023-02-23T01:46:39.108Z,9.07
2023-02-23T01:49:09.112Z,9.08
2023-02-23T01:51:41.197Z,9.10
2023-02-23T01:54:15.890Z,9.09
2023-02-23T01:56:49.190Z,8.97
2023-02-23T01:59:17.912Z,8.64
2023-02-23T02:01:45.178Z,9.03
2023-02-23T02:04:16.551Z,9.04
2023-02-23T02:06:46.962Z,8.97
2023-02-23T02:09:19.635Z,9.08
2023-02-23T02:11:54.040Z,8.98
2023-02-23T02:14:25.871Z,9.04
2023-02-23T02:17:10.657Z,9.08
2023-02-23T02:19:58.820Z,9.07
2023-02-23T02:22:34.323Z,9.07
2023-02-23T02:25:00.727Z,9.04
2023-02-23T02:27:46.647Z,9.05
2023-02-23T02:30:13.945Z,9.04
2023-02-23T02:33:05.256Z,9.07
2023-02-23T02:35:46.910Z,9.09
2023-02-23T02:38:43.062Z,9.08
2023-02-23T02:41:20.965Z,8.87
2023-02-23T02:44:00.864Z,9.14
2023-02-23T02:46:34.941Z,9.10
2023-02-23T02:49:09.203Z,9.17
2023-02-23T02:51:43.617Z,9.15
2023-02-23T02:54:28.946Z,9.17
2023-02-23T02:57:00.406Z,8.82
2023-02-23T02:59:46.310Z,9.11
2023-02-23T03:02:36.533Z,9.10
2023-02-23T03:05:22.047Z,9.10
2023-02-23T03:08:44.848Z,9.08
2023-02-23T03:11:33.015Z,8.99
2023-02-23T03:14:36.809Z,9.02
2023-02-23T03:17:47.581Z,9.00
2023-02-23T03:20:53.174Z,8.89
2023-02-23T03:23:56.646Z,8.98
2023-02-23T03:26:56.831Z,8.96
2023-02-23T03:30:02.009Z,8.94
2023-02-23T03:32:56.383Z,8.92
2023-02-23T03:35:47.419Z,8.69
2023-02-23T03:39:08.261Z,8.88
2023-02-23T03:41:55.738Z,8.85
2023-02-23T03:44:48.001Z,8.85
2023-02-23T03:47:35.995Z,8.85
2023-02-23T03:50:25.453Z,8.86
2023-02-23T03:53:19.404Z,8.82
2023-02-23T03:56:11.244Z,8.87
2023-02-23T03:59:03.531Z,8.86
2023-02-23T04:01:51.100Z,8.56
2023-02-23T04:04:37.021Z,8.80
2023-02-23T04:07:25.913Z,8.84
2023-02-23T04:10:11.245Z,8.89
2023-02-23T04:12:59.639Z,8.76
2023-02-23T04:15:47.589Z,8.92
2023-02-23T04:18:17.314Z,8.90
2023-02-23T04:20:43.770Z,8.93
2023-02-23T04:23:10.380Z,8.93
2023-02-23T04:25:37.003Z,8.94
2023-02-23T04:28:03.580Z,8.96
2023-02-23T04:30:30.357Z,8.97
2023-02-23T04:32:57.035Z,8.97
2023-02-23T04:35:23.798Z,8.95
2023-02-23T04:37:50.186Z,8.89
2023-02-23T04:40:16.750Z,9.01
2023-02-23T04:42:43.203Z,8.98
2023-02-23T04:45:10.943Z,9.01
2023-02-23T04:47:37.704Z,8.99
2023-02-23T04:50:04.625Z,8.99
2023-02-23T04:52:31.428Z,8.99
2023-02-23T04:54:57.891Z,8.90
2023-02-23T04:57:24.320Z,8.80
2023-02-23T04:59:50.768Z,8.86
2023-02-23T05:02:17.139Z,9.00
2023-02-23T05:04:44.056Z,9.03
2023-02-23T05:07:10.667Z,8.99
2023-02-23T05:09:37.078Z,9.06
2023-02-23T05:12:03.855Z,8.91
2023-02-23T05:14:30.263Z,9.10
2023-02-23T05:16:56.649Z,8.89
2023-02-23T05:19:23.158Z,9.10
2023-02-23T05:21:50.632Z,8.94
2023-02-23T05:24:18.375Z,9.06
2023-02-23T05:26:45.552Z,9.24
2023-02-23T05:29:12.510Z,9.26
2023-02-23T05:31:39.018Z,9.29
2023-02-23T05:34:05.499Z,9.12
2023-02-23T05:36:31.893Z,9.33
2023-02-23T05:38:58.306Z,9.30
2023-02-23T05:41:25.015Z,9.34
2023-02-23T05:43:52.741Z,9.38
2023-02-23T05:46:22.342Z,9.42
2023-02-23T05:48:48.945Z,9.20
2023-02-23T05:51:16.965Z,9.34
2023-02-23T05:53:44.535Z,9.49
2023-02-23T05:56:20.179Z,9.35
2023-02-23T05:58:57.830Z,9.46
2023-02-23T06:01:25.750Z,9.56
2023-02-23T06:03:52.198Z,9.57
2023-02-23T06:06:18.932Z,9.55
2023-02-23T06:08:45.571Z,9.53
2023-02-23T06:11:12.175Z,9.60
2023-02-23T06:13:44.940Z,9.55
2023-02-23T06:16:11.503Z,9.64
2023-02-23T06:18:37.995Z,9.46
2023-02-23T06:21:05.676Z,9.65
2023-02-23T06:23:33.238Z,9.63
2023-02-23T06:26:00.157Z,9.67
2023-02-23T06:28:27.903Z,9.67
2023-02-23T06:30:55.129Z,9.66
2023-02-23T06:33:22.495Z,9.70
2023-02-23T06:35:49.331Z,9.72
2023-02-23T06:38:15.785Z,9.73
2023-02-23T06:40:43.089Z,9.76
2023-02-23T06:43:09.690Z,9.77
2023-02-23T06:45:36.248Z,9.79
2023-02-23T06:48:02.663Z,9.52
2023-02-23T06:50:29.120Z,9.83
2023-02-23T06:52:57.590Z,9.77
2023-02-23T06:55:24.756Z,9.84
2023-02-23T06:57:54.145Z,9.88
2023-02-23T07:00:21.193Z,9.91
2023-02-23T07:02:47.721Z,9.87
2023-02-23T07:05:14.367Z,9.90
2023-02-23T07:07:40.895Z,9.87
2023-02-23T07:10:07.742Z,9.94
2023-02-23T07:12:34.241Z,9.88
2023-02-23T07:15:00.664Z,9.93
2023-02-23T07:17:27.111Z,9.85
2023-02-23T07:19:53.689Z,9.77
2023-02-23T07:22:20.181Z,10.00
2023-02-23T07:24:46.772Z,9.80
2023-02-23T07:27:13.341Z,9.96
2023-02-23T07:29:40.300Z,9.94
2023-02-23T07:32:07.577Z,9.96
2023-02-23T07:34:34.084Z,9.97
2023-02-23T07:37:00.557Z,9.96
2023-02-23T07:39:27.273Z,9.93
2023-02-23T07:41:53.788Z,10.07
2023-02-23T07:44:20.268Z,9.83
2023-02-23T07:46:46.769Z,9.78
2023-02-23T07:49:13.917Z,10.08
2023-02-23T07:51:41.290Z,9.93
2023-02-23T07:54:07.948Z,9.86
2023-02-23T07:56:35.582Z,10.08
2023-02-23T07:59:02.974Z,10.08
2023-02-23T08:01:29.648Z,10.08
2023-02-23T08:03:56.134Z,9.97
2023-02-23T08:06:22.595Z,10.06
2023-02-23T08:08:49.116Z,9.96
2023-02-23T08:11:15.884Z,9.75
2023-02-23T08:13:42.678Z,9.80
2023-02-23T08:16:09.193Z,10.04
2023-02-23T08:18:35.681Z,10.05
2023-02-23T08:21:03.957Z,10.07
2023-02-23T08:23:31.962Z,10.04
2023-02-23T08:25:59.695Z,9.98
2023-02-23T08:28:27.541Z,10.03
2023-02-23T08:30:54.850Z,10.02
2023-02-23T08:33:22.106Z,10.00
2023-02-23T08:35:48.709Z,10.01
2023-02-23T08:38:16.393Z,9.99
2023-02-23T08:40:43.232Z,10.02
2023-02-23T08:43:10.072Z,9.98
2023-02-23T08:45:38.709Z,9.96
2023-02-23T08:48:06.464Z,9.96
2023-02-23T08:50:33.003Z,10.03
2023-02-23T08:52:59.405Z,9.88
2023-02-23T08:55:25.816Z,10.02
2023-02-23T08:57:52.198Z,9.76
2023-02-23T09:00:19.276Z,10.03
2023-02-23T09:02:48.450Z,10.03
2023-02-23T09:05:15.553Z,10.04
2023-02-23T09:07:44.949Z,10.00
2023-02-23T09:10:16.644Z,10.00
2023-02-23T09:12:43.067Z,9.79
2023-02-23T09:15:10.110Z,9.91
2023-02-23T09:17:36.628Z,9.87
2023-02-23T09:20:04.895Z,9.65
2023-02-23T09:22:32.002Z,9.79
2023-02-23T09:24:58.416Z,9.82
2023-02-23T09:27:25.126Z,9.78
2023-02-23T09:29:53.064Z,9.76
2023-02-23T09:32:19.733Z,9.73
2023-02-23T09:34:48.595Z,9.71
2023-02-23T09:37:16.000Z,9.70
2023-02-23T09:39:43.554Z,9.64
2023-02-23T09:42:25.904Z,9.63
2023-02-23T09:45:11.962Z,9.63
2023-02-23T09:48:04.343Z,9.70
2023-02-23T09:50:34.829Z,9.70
2023-02-23T09:53:14.663Z,9.70
2023-02-23T09:55:43.515Z,9.75
2023-02-23T09:58:21.108Z,9.53
2023-02-23T10:00:58.838Z,9.73
2023-02-23T10:03:35.195Z,9.67
2023-02-23T10:06:06.462Z,9.56
2023-02-23T10:09:11.020Z,9.89
2023-02-23T10:11:44.284Z,9.87
2023-02-23T10:14:35.216Z,9.87
2023-02-23T10:17:18.556Z,9.85
2023-02-23T10:19:53.752Z,9.82
2023-02-23T10:22:20.872Z,9.58
2023-02-23T10:24:55.737Z,9.67
2023-02-23T10:27:29.273Z,9.77
2023-02-23T10:29:57.676Z,9.76
2023-02-23T10:32:45.795Z,9.77
2023-02-23T10:35:15.532Z,9.76
2023-02-23T10:37:42.142Z,9.73
2023-02-23T10:40:16.170Z,9.56
2023-02-23T10:42:42.706Z,9.63
2023-02-23T10:45:18.636Z,9.56
2023-02-23T10:47:46.836Z,9.58
2023-02-23T10:50:14.189Z,9.53
2023-02-23T10:52:45.365Z,9.50
2023-02-23T10:55:30.122Z,9.51
2023-02-23T10:58:09.977Z,9.46
2023-02-23T11:00:40.459Z,9.54
2023-02-23T11:03:19.261Z,9.60
2023-02-23T11:05:50.408Z,9.67
2023-02-23T11:08:29.171Z,9.78
2023-02-23T11:11:00.702Z,9.86
2023-02-23T11:13:40.368Z,9.77
2023-02-23T11:16:10.315Z,10.09
2023-02-23T11:18:39.105Z,10.20
2023-02-23T11:21:11.076Z,10.09
2023-02-23T11:23:40.159Z,10.38
2023-02-23T11:26:23.094Z,10.47
2023-02-23T11:28:56.370Z,10.26
2023-02-23T11:31:29.993Z,10.54
2023-02-23T11:33:58.200Z,10.58
2023-02-23T11:36:24.658Z,10.63
2023-02-23T11:39:11.309Z,10.72
2023-02-23T11:41:37.832Z,10.76
2023-02-23T11:44:06.401Z,10.85
2023-02-23T11:46:37.947Z,10.96
2023-02-23T11:49:09.049Z,11.01
2023-02-23T11:51:39.002Z,11.08
2023-02-23T11:54:10.270Z,11.13
2023-02-23T11:56:36.966Z,11.15
2023-02-23T11:59:15.432Z,11.17
2023-02-23T12:01:48.003Z,10.92
2023-02-23T12:04:40.522Z,11.15
2023-02-23T12:07:41.781Z,11.19
2023-02-23T12:10:26.568Z,11.12
2023-02-23T12:13:05.175Z,11.15
2023-02-23T12:15:36.282Z,10.85
2023-02-23T12:18:38.116Z,11.18
2023-02-23T12:21:15.483Z,11.12
2023-02-23T12:23:46.449Z,11.00
2023-02-23T12:26:21.593Z,11.10
2023-02-23T12:28:58.646Z,10.83
2023-02-23T12:31:44.107Z,11.08
2023-02-23T12:34:55.148Z,10.81
2023-02-23T12:37:29.245Z,11.05
2023-02-23T12:40:25.430Z,10.98
2023-02-23T12:43:22.954Z,11.06
2023-02-23T12:46:00.195Z,11.00
2023-02-23T12:48:38.725Z,11.00
2023-02-23T12:51:44.518Z,11.05
2023-02-23T12:54:12.728Z,11.03
2023-02-23T12:56:51.336Z,11.02
2023-02-23T12:59:51.857Z,11.04
2023-02-23T13:02:43.640Z,10.96
2023-02-23T13:05:31.251Z,10.98
2023-02-23T13:08:13.879Z,11.03
2023-02-23T13:10:52.761Z,11.05
2023-02-23T13:13:58.341Z,11.14
2023-02-23T13:16:34.114Z,11.12
2023-02-23T13:19:28.651Z,11.19
2023-02-23T13:22:00.012Z,11.15
2023-02-23T13:24:31.760Z,11.16
2023-02-23T13:27:18.100Z,11.17
2023-02-23T13:29:49.883Z,11.20
2023-02-23T13:32:22.360Z,10.97
2023-02-23T13:35:04.592Z,11.28
2023-02-23T13:37:43.215Z,11.31
2023-02-23T13:40:31.202Z,11.33
2023-02-23T13:43:07.639Z,11.25
2023-02-23T13:46:01.859Z,11.32
2023-02-23T13:48:55.513Z,11.35
2023-02-23T13:51:37.540Z,11.37
2023-02-23T13:54:16.442Z,11.37
2023-02-23T13:56:53.019Z,11.40
2023-02-23T13:59:22.357Z,11.39
2023-02-23T14:01:54.592Z,11.42
2023-02-23T14:04:36.973Z,11.45
2023-02-23T14:07:09.334Z,11.43
2023-02-23T14:09:40.996Z,11.38
2023-02-23T14:12:10.422Z,11.37
2023-02-23T14:14:37.255Z,11.37
2023-02-23T14:17:15.753Z,11.31
2023-02-23T14:20:06.249Z,11.30
2023-02-23T14:22:34.759Z,11.19
2023-02-23T14:25:32.180Z,11.19
2023-02-23T14:28:06.818Z,10.95
2023-02-23T14:30:52.270Z,10.81
2023-02-23T14:34:00.805Z,11.23
2023-02-23T14:36:27.133Z,11.18
2023-02-23T14:38:56.270Z,11.18
2023-02-23T14:41:55.997Z,11.25
2023-02-23T14:44:31.070Z,11.16
2023-02-23T14:47:15.622Z,11.18
2023-02-23T14:49:47.052Z,11.19
2023-02-23T14:52:25.692Z,11.28
2023-02-23T14:54:53.209Z,11.26
2023-02-23T14:57:24.822Z,11.27
2023-02-23T14:59:57.440Z,11.24
2023-02-23T15:02:26.129Z,11.22
2023-02-23T15:04:52.822Z,11.11
2023-02-23T15:07:35.229Z,11.16
2023-02-23T15:10:08.142Z,11.11
2023-02-23T15:12:37.837Z,10.93
2023-02-23T15:15:13.805Z,11.11
2023-02-23T15:17:43.920Z,11.10
2023-02-23T15:20:23.263Z,10.89
2023-02-23T15:22:55.124Z,11.03
2023-02-23T15:25:26.021Z,11.00
2023-02-23T15:27:53.073Z,10.76
2023-02-23T15:30:32.705Z,10.88
2023-02-23T15:33:05.165Z,10.79
2023-02-23T15:35:42.556Z,10.75
2023-02-23T15:38:17.747Z,10.60
2023-02-23T15:40:55.348Z,10.40
2023-02-23T15:43:22.269Z,10.31
2023-02-23T15:45:54.477Z,10.28
2023-02-23T15:48:24.654Z,10.35
2023-02-23T15:50:56.731Z,10.28
2023-02-23T15:53:29.052Z,10.23
2023-02-23T15:56:02.864Z,10.17
2023-02-23T15:58:44.584Z,10.13
2023-02-23T16:01:24.898Z,10.08
2023-02-23T16:04:14.541Z,10.05
2023-02-23T16:07:12.117Z,10.04
2023-02-23T16:09:39.008Z,9.91
2023-02-23T16:12:17.443Z,9.87
2023-02-23T16:14:48.702Z,9.87
2023-02-23T16:17:45.467Z,9.90
2023-02-23T16:20:30.572Z,9.81
2023-02-23T16:22:58.236Z,9.79
2023-02-23T16:25:27.356Z,9.74
2023-02-23T16:28:02.424Z,9.59
2023-02-23T16:30:32.123Z,9.70
2023-02-23T16:33:22.900Z,9.69
2023-02-23T16:35:52.614Z,9.61
2023-02-23T16:38:33.611Z,9.61
2023-02-23T16:41:00.172Z,9.52
2023-02-23T16:43:26.935Z,9.49
2023-02-23T16:45:53.601Z,9.45
2023-02-23T16:48:20.220Z,9.40
2023-02-23T16:50:47.720Z,9.23
2023-02-23T16:53:14.232Z,9.30
2023-02-23T16:55:46.793Z,9.25
2023-02-23T16:58:19.620Z,9.17
2023-02-23T17:00:46.208Z,9.07
2023-02-23T17:03:25.012Z,9.08
2023-02-23T17:05:52.309Z,8.96
2023-02-23T17:08:18.950Z,8.95
2023-02-23T17:10:48.387Z,8.87
2023-02-23T17:13:20.946Z,8.85
2023-02-23T17:15:51.730Z,8.77
2023-02-23T17:18:26.616Z,8.76
2023-02-23T17:20:54.500Z,8.58
2023-02-23T17:23:22.996Z,8.69
2023-02-23T17:25:49.404Z,8.69
2023-02-23T17:28:15.863Z,8.66
2023-02-23T17:30:44.706Z,8.64
2023-02-23T17:33:11.751Z,8.60
2023-02-23T17:35:38.778Z,8.61
2023-02-23T17:38:06.523Z,8.44
2023-02-23T17:40:36.253Z,8.57
2023-02-23T17:43:06.247Z,8.57
2023-02-23T17:45:32.714Z,8.53
2023-02-23T17:47:59.580Z,8.55
2023-02-23T17:50:27.414Z,8.49
2023-02-23T17:52:54.260Z,8.35
2023-02-23T17:55:22.204Z,8.50
2023-02-23T17:57:48.726Z,8.49
2023-02-23T18:00:19.436Z,8.20
2023-02-23T18:02:46.357Z,8.40
2023-02-23T18:05:14.844Z,8.37
2023-02-23T18:07:42.046Z,8.32
2023-02-23T18:10:09.153Z,8.21
2023-02-23T18:12:35.638Z,8.28
2023-02-23T18:15:02.102Z,8.21
2023-02-23T18:17:28.541Z,8.15
2023-02-23T18:19:54.984Z,8.21
2023-02-23T18:22:21.419Z,8.12
2023-02-23T18:24:47.964Z,7.75
2023-02-23T18:27:14.746Z,8.19
2023-02-23T18:29:41.127Z,7.92
2023-02-23T18:32:08.077Z,8.04
2023-02-23T18:34:35.182Z,7.99
2023-02-23T18:37:03.518Z,7.89
2023-02-23T18:39:31.843Z,7.90
2023-02-23T18:41:59.605Z,7.75
2023-02-23T18:44:26.863Z,7.68
2023-02-23T18:46:54.868Z,7.50
2023-02-23T18:49:24.457Z,7.47
2023-02-23T18:51:51.206Z,7.35
2023-02-23T18:54:18.532Z,7.21
2023-02-23T18:56:47.292Z,7.13
2023-02-23T18:59:14.717Z,6.87
2023-02-23T19:01:45.142Z,6.97
2023-02-23T19:04:12.558Z,6.88
2023-02-23T19:06:42.361Z,6.83
2023-02-23T19:09:12.298Z,6.74
2023-02-23T19:11:39.170Z,6.70
2023-02-23T19:14:08.910Z,6.62
2023-02-23T19:16:36.006Z,6.56
2023-02-23T19:19:07.561Z,6.49
2023-02-23T19:21:34.315Z,6.42
2023-02-23T19:24:02.359Z,6.29
2023-02-23T19:26:29.986Z,6.31
2023-02-23T19:28:57.158Z,5.88
2023-02-23T19:31:25.982Z,6.27
2023-02-23T19:33:55.859Z,6.21
2023-02-23T19:36:29.341Z,6.19
2023-02-23T19:39:06.024Z,6.14
2023-02-23T19:41:33.988Z,6.08
2023-02-23T19:44:00.926Z,6.00
2023-02-23T19:46:27.937Z,5.98
2023-02-23T19:48:54.915Z,5.92
2023-02-23T19:51:22.924Z,5.85
2023-02-23T19:53:49.730Z,5.79
2023-02-23T19:56:16.971Z,5.72
2023-02-23T19:58:46.654Z,5.67
2023-02-23T20:01:19.366Z,5.54
2023-02-23T20:03:55.437Z,5.58
2023-02-23T20:06:25.002Z,5.53
2023-02-23T20:08:52.614Z,5.49
2023-02-23T20:11:19.865Z,5.27
2023-02-23T20:13:46.651Z,5.55
2023-02-23T20:16:14.959Z,5.48
2023-02-23T20:18:43.972Z,5.60
2023-02-23T20:21:19.681Z,5.69
2023-02-23T20:23:47.084Z,5.73
2023-02-23T20:26:19.035Z,5.78
2023-02-23T20:28:45.781Z,5.84
2023-02-23T20:31:18.428Z,5.88
2023-02-23T20:33:44.991Z,5.68
2023-02-23T20:36:12.101Z,5.98
2023-02-23T20:38:38.854Z,5.79
2023-02-23T20:41:05.464Z,6.07
2023-02-23T20:43:31.920Z,6.10
2023-02-23T20:46:01.563Z,6.00
2023-02-23T20:48:31.295Z,6.19
2023-02-23T20:50:58.575Z,6.22
2023-02-23T20:53:26.254Z,6.13
2023-02-23T20:55:54.005Z,6.24
2023-02-23T20:58:25.033Z,6.26
2023-02-23T21:01:02.557Z,6.26
2023-02-23T21:03:29.280Z,6.26
2023-02-23T21:05:55.912Z,6.32
2023-02-23T21:08:22.339Z,6.34
2023-02-23T21:10:50.249Z,6.34
2023-02-23T21:13:18.641Z,6.35
2023-02-23T21:15:45.313Z,6.38
2023-02-23T21:18:12.243Z,6.14
2023-02-23T21:20:39.695Z,6.09
2023-02-23T21:23:06.205Z,6.44
2023-02-23T21:25:32.956Z,6.44
2023-02-23T21:28:01.775Z,6.48
2023-02-23T21:30:28.881Z,6.33
2023-02-23T21:32:56.398Z,6.50
2023-02-23T21:35:23.377Z,6.55
2023-02-23T21:37:52.321Z,6.56
2023-02-23T21:40:23.658Z,6.58
2023-02-23T21:42:51.351Z,6.60
2023-02-23T21:45:19.633Z,6.59
2023-02-23T21:47:46.804Z,6.64
2023-02-23T21:50:16.371Z,6.62
2023-02-23T21:52:45.133Z,6.65
2023-02-23T21:55:21.281Z,6.58
2023-02-23T21:57:48.113Z,6.65
2023-02-23T22:00:16.259Z,6.68
2023-02-23T22:02:46.095Z,6.76
2023-02-23T22:05:13.602Z,6.74
2023-02-23T22:07:40.485Z,6.81
2023-02-23T22:10:07.418Z,6.82
2023-02-23T22:12:33.864Z,6.83
2023-02-23T22:15:06.937Z,6.84
2023-02-23T22:17:33.825Z,6.88
2023-02-23T22:20:00.485Z,6.89
2023-02-23T22:22:27.466Z,6.90
2023-02-23T22:24:53.931Z,6.92
2023-02-23T22:27:20.528Z,6.89
2023-02-23T22:29:47.027Z,6.75
2023-02-23T22:32:13.731Z,6.92
2023-02-23T22:34:40.351Z,6.88
2023-02-23T22:37:07.564Z,6.70
2023-02-23T22:39:33.993Z,6.84
2023-02-23T22:42:09.080Z,6.74
2023-02-23T22:44:38.945Z,6.74
2023-02-23T22:47:06.442Z,6.68
2023-02-23T22:49:34.592Z,6.58
2023-02-23T22:52:01.103Z,6.62
2023-02-23T22:54:27.624Z,6.60
2023-02-23T22:56:55.061Z,6.59
2023-02-23T22:59:21.612Z,6.58
2023-02-23T23:01:50.093Z,6.57
2023-02-23T23:04:17.198Z,6.56
2023-02-23T23:06:43.758Z,6.41
2023-02-23T23:09:12.127Z,6.55
2023-02-23T23:11:41.723Z,6.56
2023-02-23T23:14:10.299Z,6.57
2023-02-23T23:16:47.826Z,6.53
2023-02-23T23:19:18.153Z,6.48
2023-02-23T23:21:45.980Z,6.43
2023-02-23T23:24:13.383Z,6.39
2023-02-23T23:26:41.017Z,6.28
2023-02-23T23:29:11.207Z,6.30
2023-02-23T23:31:38.591Z,6.37
2023-02-23T23:34:09.427Z,6.26
2023-02-23T23:36:42.939Z,6.20
2023-02-23T23:39:15.944Z,6.15
2023-02-23T23:41:47.791Z,6.15
2023-02-23T23:44:17.014Z,6.16
2023-02-23T23:46:45.055Z,6.13
2023-02-23T23:49:15.795Z,6.14
2023-02-23T23:51:45.345Z,6.12
2023-02-23T23:54:21.705Z,6.04
2023-02-23T23:56:49.473Z,6.16
2023-02-23T23:59:17.660Z,6.19
